Time;durP1;ratioP1;P1;durP2;ratioP2;P2;SDS_P1;SDS_P2;PMS_P1;PMS_P2;Temp;Humidity;BMP_temperature;BMP_pressure;BME280_temperature;BME280_humidity;BME280_pressure;Samples;Min_cycle;Max_cycle;Signal;HPM_P1;HPM_P2
2024/01/28 00:01:18;;;;;;;5.20;2.30;;;0.70;99.90;;;;;;4889770;29;20405;-81
2024/01/28 00:03:45;;;;;;;4.63;2.17;;;0.70;99.90;;;;;;4882391;29;20068;-81
2024/01/28 00:06:12;;;;;;;5.13;2.43;;;0.70;99.90;;;;;;4884043;29;20104;-81
2024/01/28 00:08:40;;;;;;;4.60;2.27;;;0.70;99.90;;;;;;4868568;29;20048;-81
2024/01/28 00:11:06;;;;;;;5.80;2.27;;;0.70;99.90;;;;;;4880936;29;20080;-80
2024/01/28 00:13:34;;;;;;;4.03;1.90;;;0.70;99.90;;;;;;4876924;29;20510;-80
2024/01/28 00:16:01;;;;;;;3.93;1.67;;;0.70;99.90;;;;;;4900643;29;20070;-81
2024/01/28 00:18:29;;;;;;;4.83;2.03;;;0.70;99.90;;;;;;4899531;29;20556;-80
2024/01/28 00:20:57;;;;;;;4.70;1.80;;;0.60;99.90;;;;;;4884168;29;20096;-79
2024/01/28 00:23:24;;;;;;;6.60;1.90;;;0.60;99.90;;;;;;4868191;29;20044;-80
2024/01/28 00:25:51;;;;;;;3.93;1.67;;;0.60;99.90;;;;;;4883601;29;20442;-80
2024/01/28 00:28:18;;;;;;;3.93;1.77;;;0.60;99.90;;;;;;4880326;29;20060;-80
2024/01/28 00:30:46;;;;;;;3.70;1.60;;;0.60;99.90;;;;;;4874295;29;20067;-81
2024/01/28 00:33:13;;;;;;;4.23;2.10;;;0.60;99.90;;;;;;4882658;29;20040;-80
2024/01/28 00:35:40;;;;;;;3.73;1.70;;;0.60;99.90;;;;;;4880481;29;20045;-80
2024/01/28 00:38:07;;;;;;;4.73;1.70;;;0.60;99.90;;;;;;4894012;29;20072;-80
2024/01/28 00:40:34;;;;;;;4.27;1.87;;;0.60;99.90;;;;;;4883509;29;20100;-80
2024/01/28 00:43:08;;;;;;;4.60;1.80;;;0.60;99.90;;;;;;4898972;29;20049;-81
2024/01/28 00:45:35;;;;;;;2.70;1.20;;;0.60;99.90;;;;;;4868038;29;20068;-80
2024/01/28 00:48:02;;;;;;;4.47;1.53;;;0.50;99.90;;;;;;4883465;29;20052;-80
2024/01/28 00:50:29;;;;;;;4.57;1.63;;;0.60;99.90;;;;;;4899006;29;20045;-80
2024/01/28 00:52:56;;;;;;;3.87;1.60;;;0.60;99.90;;;;;;4898935;29;20501;-79
2024/01/28 00:55:24;;;;;;;2.57;1.30;;;0.60;99.90;;;;;;4881622;29;20056;-80
2024/01/28 00:57:51;;;;;;;3.67;1.43;;;0.60;99.90;;;;;;4883334;29;20100;-80
2024/01/28 01:00:18;;;;;;;2.67;1.40;;;0.60;99.90;;;;;;4878645;29;20052;-80
2024/01/28 01:02:45;;;;;;;3.37;1.30;;;0.60;99.90;;;;;;4882977;29;20051;-80
2024/01/28 01:05:12;;;;;;;3.17;1.03;;;0.60;99.90;;;;;;4883031;29;20066;-80
2024/01/28 01:07:39;;;;;;;2.97;1.43;;;0.60;99.90;;;;;;4883084;29;20096;-80
2024/01/28 01:10:08;;;;;;;2.80;1.53;;;0.60;99.90;;;;;;4883259;29;20068;-80
2024/01/28 01:12:35;;;;;;;3.47;1.57;;;0.60;99.90;;;;;;4900115;29;20044;-80
2024/01/28 01:15:03;;;;;;;3.53;1.53;;;0.60;99.90;;;;;;4883106;29;20053;-79
2024/01/28 01:17:30;;;;;;;2.73;1.30;;;0.60;99.90;;;;;;4882927;29;20083;-80
2024/01/28 01:19:57;;;;;;;3.67;1.43;;;0.60;99.90;;;;;;4898278;29;20044;-80
2024/01/28 01:22:24;;;;;;;2.50;1.30;;;0.60;99.90;;;;;;4882643;29;20144;-80
2024/01/28 01:24:51;;;;;;;3.63;1.30;;;0.50;99.90;;;;;;4882777;29;20069;-80
2024/01/28 01:27:18;;;;;;;3.33;1.20;;;0.50;99.90;;;;;;4882633;29;20390;-80
2024/01/28 01:29:45;;;;;;;3.60;1.57;;;0.50;99.90;;;;;;4882975;29;20060;-80
2024/01/28 01:32:12;;;;;;;4.33;1.53;;;0.50;99.90;;;;;;4897891;29;20095;-80
2024/01/28 01:34:39;;;;;;;3.17;1.10;;;0.50;99.90;;;;;;4882545;29;20061;-80
2024/01/28 01:37:06;;;;;;;4.63;1.23;;;0.50;99.90;;;;;;4899142;29;20513;-80
2024/01/28 01:39:33;;;;;;;2.80;1.67;;;0.50;99.90;;;;;;4879426;29;20443;-80
2024/01/28 01:42:00;;;;;;;4.40;1.40;;;0.50;99.90;;;;;;4896644;29;20059;-81
2024/01/28 01:44:28;;;;;;;2.50;1.20;;;0.50;99.90;;;;;;4867022;29;20466;-79
2024/01/28 01:46:55;;;;;;;2.77;0.90;;;0.40;99.90;;;;;;4866842;29;20129;-79
2024/01/28 01:49:22;;;;;;;3.07;1.17;;;0.50;99.90;;;;;;4897724;29;20049;-80
2024/01/28 01:51:50;;;;;;;3.63;1.23;;;0.50;99.90;;;;;;4898006;29;20045;-80
2024/01/28 01:54:17;;;;;;;3.90;1.27;;;0.40;99.90;;;;;;4897632;29;20068;-79
2024/01/28 01:56:44;;;;;;;2.53;1.20;;;0.40;99.90;;;;;;4882766;29;20049;-80
2024/01/28 01:59:12;;;;;;;3.57;1.40;;;0.50;99.90;;;;;;4869408;29;20063;-79
2024/01/28 02:01:39;;;;;;;2.70;0.93;;;0.40;99.90;;;;;;4897462;29;20054;-81
2024/01/28 02:04:06;;;;;;;4.73;1.20;;;0.40;99.90;;;;;;4866330;29;20053;-80
2024/01/28 02:06:34;;;;;;;2.40;0.93;;;0.40;99.90;;;;;;4881832;29;20135;-80
2024/01/28 02:09:01;;;;;;;2.70;1.37;;;0.40;99.90;;;;;;4866025;29;20052;-80
2024/01/28 02:11:28;;;;;;;3.90;1.40;;;0.40;99.90;;;;;;4882076;29;20052;-80
2024/01/28 02:13:55;;;;;;;3.10;1.43;;;0.30;99.90;;;;;;4881876;29;20053;-80
2024/01/28 02:16:25;;;;;;;2.67;1.20;;;0.30;99.90;;;;;;4898591;29;20117;-80
2024/01/28 02:18:52;;;;;;;2.50;1.10;;;0.30;99.90;;;;;;4882012;29;20445;-79
2024/01/28 02:21:20;;;;;;;3.37;1.40;;;0.30;99.90;;;;;;4878813;29;20057;-80
2024/01/28 02:23:47;;;;;;;2.73;1.20;;;0.30;99.90;;;;;;4881790;29;20108;-80
2024/01/28 02:26:14;;;;;;;2.47;1.20;;;0.30;99.90;;;;;;4880717;29;20044;-81
2024/01/28 02:28:41;;;;;;;4.57;1.20;;;0.30;99.90;;;;;;4881735;29;20477;-80
2024/01/28 02:31:08;;;;;;;2.30;0.93;;;0.30;99.90;;;;;;4881773;29;20040;-80
2024/01/28 02:33:35;;;;;;;5.03;1.30;;;0.20;99.90;;;;;;4881519;29;20053;-80
2024/01/28 02:36:02;;;;;;;3.07;1.20;;;0.30;99.90;;;;;;4897100;29;20108;-80
2024/01/28 02:38:29;;;;;;;3.10;1.27;;;0.20;99.90;;;;;;4878472;29;20076;-80
2024/01/28 02:40:56;;;;;;;2.97;1.37;;;0.20;99.90;;;;;;4883390;29;20059;-80
2024/01/28 02:43:26;;;;;;;3.67;1.10;;;0.20;99.90;;;;;;4881250;29;20048;-80
2024/01/28 02:45:53;;;;;;;3.13;0.90;;;0.20;99.90;;;;;;4881371;29;20045;-80
2024/01/28 02:48:20;;;;;;;2.40;0.97;;;0.20;99.90;;;;;;4881488;29;20152;-80
2024/01/28 02:50:47;;;;;;;2.30;1.20;;;0.20;99.90;;;;;;4881401;29;20059;-80
2024/01/28 02:53:14;;;;;;;2.67;0.97;;;0.10;99.90;;;;;;4881435;29;20143;-81
2024/01/28 02:55:42;;;;;;;3.37;1.40;;;0.10;99.90;;;;;;4881298;29;20049;-81
2024/01/28 02:58:09;;;;;;;2.97;1.13;;;0.10;99.90;;;;;;4896865;29;20056;-81
2024/01/28 03:00:36;;;;;;;4.27;1.30;;;0.10;99.90;;;;;;4881497;29;20052;-81
2024/01/28 03:03:04;;;;;;;3.63;0.90;;;0.10;99.90;;;;;;4881546;29;20056;-80
2024/01/28 03:05:31;;;;;;;4.27;1.20;;;0.10;99.90;;;;;;4881716;29;20045;-80
2024/01/28 03:07:58;;;;;;;3.83;1.03;;;0.10;99.90;;;;;;4878222;29;20097;-80
2024/01/28 03:10:25;;;;;;;3.10;0.97;;;0.10;99.90;;;;;;4878632;29;20048;-80
2024/01/28 03:12:52;;;;;;;3.27;0.90;;;0.10;99.90;;;;;;4862659;29;20105;-80
2024/01/28 03:15:19;;;;;;;1.93;0.93;;;0.10;99.90;;;;;;4871359;29;20148;-80
2024/01/28 03:17:47;;;;;;;3.73;0.80;;;0.20;99.90;;;;;;4896695;29;20143;-79
2024/01/28 03:20:16;;;;;;;2.23;1.17;;;0.20;99.90;;;;;;4884843;29;20146;-79
2024/01/28 03:22:44;;;;;;;2.77;1.00;;;0.20;99.90;;;;;;4900252;29;20498;-79
2024/01/28 03:25:12;;;;;;;2.50;0.87;;;0.20;99.90;;;;;;4884736;29;20051;-80
2024/01/28 03:27:39;;;;;;;1.60;0.67;;;0.20;99.90;;;;;;4884906;29;20108;-79
2024/01/28 03:30:08;;;;;;;2.47;1.00;;;0.20;99.90;;;;;;4884935;29;20040;-79
2024/01/28 03:32:36;;;;;;;1.87;0.77;;;0.20;99.90;;;;;;4900166;29;20049;-79
2024/01/28 03:35:04;;;;;;;2.20;0.87;;;0.20;99.90;;;;;;4899971;29;20108;-80
2024/01/28 03:37:31;;;;;;;6.80;0.93;;;0.20;99.90;;;;;;4884605;29;20049;-79
2024/01/28 03:39:58;;;;;;;1.70;0.83;;;0.20;99.90;;;;;;4900224;29;20052;-79
2024/01/28 03:42:25;;;;;;;2.03;0.90;;;0.20;99.90;;;;;;4884572;29;20053;-79
2024/01/28 03:44:53;;;;;;;4.90;0.83;;;0.20;99.90;;;;;;4901281;29;20067;-80
2024/01/28 03:47:20;;;;;;;4.40;1.03;;;0.20;99.90;;;;;;4884455;29;20052;-80
2024/01/28 03:49:47;;;;;;;1.87;0.60;;;0.20;99.90;;;;;;4881365;29;20045;-80
2024/01/28 03:52:14;;;;;;;1.97;0.70;;;0.10;99.90;;;;;;4872392;29;20468;-80
2024/01/28 03:54:41;;;;;;;2.23;1.03;;;0.20;99.90;;;;;;4899877;29;20406;-80
2024/01/28 03:57:08;;;;;;;2.23;0.90;;;0.10;99.90;;;;;;4884184;29;20040;-81
2024/01/28 03:59:39;;;;;;;2.30;0.80;;;0.10;99.90;;;;;;4874535;29;20542;-80
2024/01/28 04:02:07;;;;;;;2.07;0.80;;;0.10;99.90;;;;;;4880349;29;20420;-80
2024/01/28 04:04:34;;;;;;;5.13;1.60;;;0.10;99.90;;;;;;4873479;29;20405;-80
2024/01/28 04:07:02;;;;;;;1.50;0.60;;;0.10;99.90;;;;;;4884073;29;20450;-80
2024/01/28 04:09:30;;;;;;;3.70;0.93;;;0.10;99.90;;;;;;4884409;29;20048;-81
2024/01/28 04:11:57;;;;;;;4.33;1.37;;;0.00;99.90;;;;;;4884377;29;20048;-81
2024/01/28 04:14:25;;;;;;;2.90;0.80;;;0.00;99.90;;;;;;4899640;29;20052;-80
2024/01/28 04:16:52;;;;;;;2.70;0.90;;;0.00;99.90;;;;;;4899408;29;20144;-80
2024/01/28 04:19:19;;;;;;;2.40;1.07;;;0.00;99.90;;;;;;4899406;29;20104;-80
2024/01/28 04:21:49;;;;;;;3.80;1.73;;;0.00;99.90;;;;;;4880774;29;20088;-80
2024/01/28 04:24:16;;;;;;;3.07;0.93;;;0.00;99.90;;;;;;4896098;29;20060;-80
2024/01/28 04:26:43;;;;;;;2.23;0.97;;;0.10;99.90;;;;;;4900042;29;20101;-80
2024/01/28 04:29:10;;;;;;;5.47;1.10;;;0.10;99.90;;;;;;4884674;29;20085;-80
2024/01/28 04:31:42;;;;;;;2.73;0.90;;;0.10;99.90;;;;;;4884573;29;20497;-80
2024/01/28 04:34:10;;;;;;;1.95;0.47;;;0.10;99.90;;;;;;4900423;29;20124;-82
2024/01/28 04:36:37;;;;;;;2.57;0.80;;;0.10;99.90;;;;;;4883725;29;20068;-81
2024/01/28 04:39:05;;;;;;;2.53;0.70;;;0.10;99.90;;;;;;4883640;29;20060;-81
2024/01/28 04:41:32;;;;;;;2.30;0.80;;;0.10;99.90;;;;;;4883708;29;20147;-80
2024/01/28 04:43:59;;;;;;;2.40;0.93;;;0.20;99.90;;;;;;4898851;29;20382;-80
2024/01/28 04:46:26;;;;;;;1.50;0.67;;;0.20;99.90;;;;;;4900243;29;20045;-80
2024/01/28 04:48:53;;;;;;;2.50;0.77;;;0.20;99.90;;;;;;4899217;29;20081;-80
2024/01/28 04:51:20;;;;;;;1.87;0.70;;;0.20;99.90;;;;;;4880425;29;20045;-80
2024/01/28 04:53:48;;;;;;;2.33;0.70;;;0.20;99.90;;;;;;4896751;29;20048;-80
2024/01/28 04:56:15;;;;;;;2.30;1.27;;;0.20;99.90;;;;;;4880288;29;20088;-81
2024/01/28 04:58:42;;;;;;;2.13;0.80;;;0.20;99.90;;;;;;4895093;29;20048;-80
2024/01/28 05:01:09;;;;;;;2.43;0.60;;;0.20;99.90;;;;;;4899996;29;20410;-80
2024/01/28 05:03:36;;;;;;;3.33;1.00;;;0.20;99.90;;;;;;4898386;29;20064;-80
2024/01/28 05:06:04;;;;;;;1.90;0.80;;;0.30;99.90;;;;;;4898604;29;20112;-80
2024/01/28 05:08:31;;;;;;;4.90;0.80;;;0.30;99.90;;;;;;4883148;29;20071;-80
2024/01/28 05:10:58;;;;;;;2.70;0.70;;;0.30;99.90;;;;;;4898441;29;20041;-80
2024/01/28 05:13:25;;;;;;;2.23;0.63;;;0.30;99.90;;;;;;4898346;29;20061;-80
2024/01/28 05:15:52;;;;;;;1.07;0.60;;;0.30;99.90;;;;;;4899575;29;20049;-80
2024/01/28 05:18:20;;;;;;;1.67;0.63;;;0.30;99.90;;;;;;4898317;29;20076;-79
2024/01/28 05:20:47;;;;;;;1.77;0.80;;;0.30;99.90;;;;;;4881471;29;20402;-80
2024/01/28 05:23:14;;;;;;;3.07;0.73;;;0.30;99.90;;;;;;4880576;29;20064;-80
2024/01/28 05:25:41;;;;;;;1.83;0.70;;;0.30;99.90;;;;;;4864140;29;20052;-80
2024/01/28 05:28:08;;;;;;;2.77;0.70;;;0.30;99.90;;;;;;4898055;29;20045;-81
2024/01/28 05:30:35;;;;;;;1.77;0.70;;;0.30;99.90;;;;;;4882534;29;20073;-79
2024/01/28 05:33:04;;;;;;;2.90;0.77;;;0.30;99.90;;;;;;4897993;29;20053;-79
2024/01/28 05:35:32;;;;;;;2.53;0.93;;;0.30;99.90;;;;;;4882438;29;20072;-79
2024/01/28 05:37:59;;;;;;;3.77;1.63;;;0.30;99.90;;;;;;4897861;29;20045;-79
2024/01/28 05:40:26;;;;;;;1.30;0.50;;;0.30;99.90;;;;;;4882409;29;20080;-80
2024/01/28 05:42:53;;;;;;;2.00;0.80;;;0.30;99.90;;;;;;4874225;29;20439;-80
2024/01/28 05:45:20;;;;;;;1.73;0.70;;;0.30;99.90;;;;;;4897605;29;20040;-79
2024/01/28 05:47:47;;;;;;;1.13;0.60;;;0.30;99.90;;;;;;4882063;29;20049;-80
2024/01/28 05:50:14;;;;;;;1.60;0.50;;;0.30;99.90;;;;;;4882167;29;20045;-80
2024/01/28 05:52:41;;;;;;;1.70;0.80;;;0.30;99.90;;;;;;4897600;29;20049;-81
2024/01/28 05:55:08;;;;;;;1.90;0.60;;;0.30;99.90;;;;;;4897526;29;20076;-79
2024/01/28 05:57:35;;;;;;;3.10;0.90;;;0.20;99.90;;;;;;4878836;29;20120;-80
2024/01/28 06:00:03;;;;;;;1.37;0.60;;;0.20;99.90;;;;;;4872330;29;20037;-79
2024/01/28 06:02:34;;;;;;;2.83;0.80;;;0.10;99.90;;;;;;4897553;29;20052;-80
2024/01/28 06:05:02;;;;;;;0.97;0.50;;;0.10;99.90;;;;;;4881819;29;20044;-80
2024/01/28 06:07:31;;;;;;;2.73;0.70;;;0.10;99.90;;;;;;4882236;29;20049;-80
2024/01/28 06:09:58;;;;;;;2.10;1.00;;;0.10;99.90;;;;;;4897489;29;20599;-79
2024/01/28 06:12:25;;;;;;;2.67;0.70;;;0.10;99.90;;;;;;4897302;29;20074;-80
2024/01/28 06:14:53;;;;;;;1.40;0.63;;;0.10;99.90;;;;;;4881764;29;20055;-80
2024/01/28 06:17:20;;;;;;;1.20;0.70;;;0.00;99.90;;;;;;4897066;29;20512;-80
2024/01/28 06:19:46;;;;;;;1.90;0.70;;;0.10;99.90;;;;;;4881660;29;20056;-80
2024/01/28 06:22:14;;;;;;;1.70;1.00;;;0.00;99.90;;;;;;4878777;29;20060;-80
2024/01/28 06:24:42;;;;;;;2.20;0.90;;;0.00;99.90;;;;;;4888072;29;20044;-80
2024/01/28 06:27:09;;;;;;;3.30;0.70;;;0.10;99.90;;;;;;4863128;29;20139;-80
2024/01/28 06:29:36;;;;;;;1.93;0.60;;;0.10;99.90;;;;;;4876332;29;20049;-80
2024/01/28 06:32:04;;;;;;;2.43;0.70;;;0.00;99.90;;;;;;4897042;29;20040;-81
2024/01/28 06:34:33;;;;;;;2.93;0.60;;;0.10;99.90;;;;;;4878911;29;20073;-80
2024/01/28 06:37:01;;;;;;;1.97;0.50;;;0.10;99.90;;;;;;4896769;29;20154;-80
2024/01/28 06:39:28;;;;;;;2.20;0.70;;;0.10;99.90;;;;;;4897097;29;20040;-80
2024/01/28 06:41:55;;;;;;;1.87;0.70;;;0.10;99.90;;;;;;4881281;29;20048;-81
2024/01/28 06:44:22;;;;;;;3.03;0.90;;;0.00;99.90;;;;;;4896592;29;20051;-80
2024/01/28 06:46:49;;;;;;;2.70;0.70;;;0.00;99.90;;;;;;4896567;29;20047;-79
2024/01/28 06:49:15;;;;;;;2.33;0.83;;;0.00;99.90;;;;;;4881126;29;20041;-80
2024/01/28 06:51:46;;;;;;;2.50;0.70;;;0.00;99.90;;;;;;4897719;29;20115;-80
2024/01/28 06:54:13;;;;;;;1.53;0.70;;;0.00;99.90;;;;;;4896936;29;20044;-80
2024/01/28 06:56:40;;;;;;;2.23;0.90;;;-0.10;99.90;;;;;;4896571;29;20104;-80
2024/01/28 06:59:07;;;;;;;1.87;0.70;;;-0.10;99.90;;;;;;4881426;29;20044;-81
2024/01/28 07:01:34;;;;;;;1.97;0.80;;;-0.10;99.90;;;;;;4881939;29;20063;-81
2024/01/28 07:04:02;;;;;;;2.07;0.70;;;-0.10;99.90;;;;;;4896642;29;20063;-81
2024/01/28 07:06:29;;;;;;;2.53;0.80;;;-0.10;99.90;;;;;;4881382;29;20044;-80
2024/01/28 07:08:57;;;;;;;1.87;0.70;;;-0.10;99.90;;;;;;4897759;29;20160;-80
2024/01/28 07:11:24;;;;;;;1.80;0.80;;;-0.10;99.90;;;;;;4881156;29;20041;-82
2024/01/28 07:13:51;;;;;;;1.27;0.57;;;-0.10;99.90;;;;;;4865759;29;20056;-81
2024/01/28 07:16:19;;;;;;;2.50;0.70;;;-0.10;99.90;;;;;;4866082;29;20045;-81
2024/01/28 07:18:46;;;;;;;2.00;0.70;;;-0.10;99.90;;;;;;4896363;29;20497;-80
2024/01/28 07:21:14;;;;;;;2.47;0.70;;;-0.20;99.90;;;;;;4897424;29;20044;-80
2024/01/28 07:23:41;;;;;;;1.83;0.53;;;-0.20;99.90;;;;;;4896333;29;20522;-80
2024/01/28 07:26:09;;;;;;;2.43;0.80;;;-0.20;99.90;;;;;;4880658;29;20051;-80
2024/01/28 07:28:36;;;;;;;2.70;0.63;;;-0.20;99.90;;;;;;4868032;29;20048;-80
2024/01/28 07:31:05;;;;;;;1.67;0.80;;;-0.10;99.90;;;;;;4896152;29;20045;-80
2024/01/28 07:33:33;;;;;;;2.33;0.67;;;-0.20;99.90;;;;;;4896118;29;20048;-80
2024/01/28 07:36:00;;;;;;;1.60;0.67;;;-0.10;99.90;;;;;;4880643;29;20079;-80
2024/01/28 07:38:29;;;;;;;1.57;0.53;;;-0.10;99.90;;;;;;4896115;29;20044;-81
2024/01/28 07:40:56;;;;;;;2.00;0.60;;;-0.10;99.90;;;;;;4896312;29;20045;-81
2024/01/28 07:43:23;;;;;;;3.40;0.70;;;0.00;99.90;;;;;;4895763;29;20044;-81
2024/01/28 07:45:51;;;;;;;4.50;0.70;;;0.00;99.90;;;;;;4880223;29;20037;-80
2024/01/28 07:48:18;;;;;;;1.43;0.50;;;0.10;99.90;;;;;;4880648;29;20059;-81
2024/01/28 07:50:45;;;;;;;1.37;0.67;;;0.10;99.90;;;;;;4897305;29;20049;-81
2024/01/28 07:53:13;;;;;;;2.30;0.80;;;0.20;99.90;;;;;;4862407;29;20053;-81
2024/01/28 07:55:40;;;;;;;1.60;0.70;;;0.20;99.90;;;;;;4879691;29;20523;-81
2024/01/28 07:58:07;;;;;;;2.70;0.60;;;0.40;99.90;;;;;;4896261;29;20075;-81
2024/01/28 08:00:34;;;;;;;1.73;0.50;;;0.40;99.90;;;;;;4880591;29;20057;-81
2024/01/28 08:03:01;;;;;;;2.00;0.60;;;0.50;99.90;;;;;;4880516;29;20056;-81
2024/01/28 08:05:28;;;;;;;1.33;0.50;;;0.60;99.90;;;;;;4865618;29;20053;-81
2024/01/28 08:07:56;;;;;;;1.30;0.60;;;0.70;99.90;;;;;;4899670;29;20493;-81
2024/01/28 08:10:24;;;;;;;2.37;0.70;;;0.80;99.90;;;;;;4899653;29;20104;-81
2024/01/28 08:12:51;;;;;;;2.03;0.60;;;0.90;99.90;;;;;;4880945;29;20045;-81
2024/01/28 08:15:20;;;;;;;1.97;0.67;;;0.90;99.90;;;;;;4874099;29;20073;-81
2024/01/28 08:17:49;;;;;;;1.60;0.40;;;0.90;99.90;;;;;;4898499;29;20131;-81
2024/01/28 08:20:17;;;;;;;1.03;0.40;;;1.00;99.90;;;;;;4899273;29;20056;-81
2024/01/28 08:22:43;;;;;;;2.60;0.60;;;1.00;99.90;;;;;;4868465;29;20052;-81
2024/01/28 08:25:11;;;;;;;2.17;0.60;;;1.00;99.90;;;;;;4883446;29;20052;-81
2024/01/28 08:27:39;;;;;;;4.23;0.80;;;1.00;99.90;;;;;;4883541;29;20055;-82
2024/01/28 08:30:07;;;;;;;2.23;0.67;;;1.00;99.90;;;;;;4899092;29;20040;-82
2024/01/28 08:32:35;;;;;;;1.67;0.60;;;1.00;99.90;;;;;;4899152;29;20100;-81
2024/01/28 08:35:03;;;;;;;1.80;0.70;;;1.00;99.90;;;;;;4883402;29;20048;-81
2024/01/28 08:37:30;;;;;;;2.37;0.60;;;1.00;99.90;;;;;;4898986;29;20049;-81
2024/01/28 08:39:57;;;;;;;2.53;0.60;;;1.00;99.90;;;;;;4883316;29;20048;-82
2024/01/28 08:42:25;;;;;;;1.80;0.60;;;1.00;99.90;;;;;;4898962;29;20044;-82
2024/01/28 08:44:52;;;;;;;1.90;0.60;;;1.00;99.90;;;;;;4883087;29;20083;-81
2024/01/28 08:47:19;;;;;;;1.27;0.50;;;1.00;99.90;;;;;;4882995;29;20045;-82
2024/01/28 08:49:48;;;;;;;5.20;0.70;;;1.00;99.90;;;;;;4883278;29;20052;-82
2024/01/28 08:52:16;;;;;;;1.07;0.43;;;1.00;99.90;;;;;;4883551;29;20486;-82
2024/01/28 08:54:47;;;;;;;1.63;0.57;;;1.00;99.90;;;;;;4899605;29;20044;-82
2024/01/28 08:57:14;;;;;;;1.10;0.50;;;1.00;99.90;;;;;;4899629;29;20146;-81
2024/01/28 08:59:41;;;;;;;2.27;0.80;;;1.10;99.90;;;;;;4882913;29;20055;-81
2024/01/28 09:02:09;;;;;;;3.20;0.90;;;1.10;99.90;;;;;;4881723;29;20075;-82
2024/01/28 09:04:36;;;;;;;2.27;1.30;;;1.10;99.90;;;;;;4883051;29;20040;-82
2024/01/28 09:07:03;;;;;;;1.30;0.70;;;1.20;99.90;;;;;;4883327;29;20120;-80
2024/01/28 09:09:30;;;;;;;2.23;0.60;;;1.20;99.90;;;;;;4898087;29;20044;-81
2024/01/28 09:11:58;;;;;;;1.50;0.60;;;1.20;99.90;;;;;;4899507;29;20071;-82
2024/01/28 09:14:26;;;;;;;2.20;0.50;;;1.30;99.90;;;;;;4886762;29;20112;-82
2024/01/28 09:16:53;;;;;;;2.07;0.70;;;1.30;99.90;;;;;;4897539;29;20073;-82
2024/01/28 09:19:20;;;;;;;1.90;0.80;;;1.30;99.90;;;;;;4882452;29;20053;-82
2024/01/28 09:21:47;;;;;;;1.53;0.50;;;1.30;99.90;;;;;;4879629;29;20172;-82
2024/01/28 09:24:14;;;;;;;3.50;0.90;;;1.30;99.90;;;;;;4879188;29;20045;-79
2024/01/28 09:26:41;;;;;;;2.47;0.77;;;1.40;99.90;;;;;;4897900;29;20136;-79
2024/01/28 09:29:12;;;;;;;2.70;0.77;;;1.50;99.90;;;;;;4882700;29;20059;-80
2024/01/28 09:31:43;;;;;;;0.90;0.40;;;1.50;99.90;;;;;;4897991;29;20482;-81
2024/01/28 09:34:11;;;;;;;1.70;0.70;;;1.50;99.90;;;;;;4879165;29;20076;-81
2024/01/28 09:36:38;;;;;;;1.73;0.70;;;1.60;99.90;;;;;;4882538;29;20037;-81
2024/01/28 09:39:05;;;;;;;1.63;0.57;;;1.60;99.90;;;;;;4882711;29;20108;-81
2024/01/28 09:42:08;;;;;;;1.77;0.60;;;1.70;99.90;;;;;;4899133;29;20119;-81
2024/01/28 09:44:36;;;;;;;1.23;0.53;;;1.70;99.90;;;;;;4896173;29;20044;-81
2024/01/28 09:47:05;;;;;;;2.43;0.73;;;1.80;99.90;;;;;;4882426;29;20496;-81
2024/01/28 09:49:39;;;;;;;2.27;0.57;;;1.80;99.90;;;;;;4898877;29;20517;-81
2024/01/28 09:52:11;;;;;;;2.00;0.60;;;1.90;99.90;;;;;;4882052;29;20501;-78
2024/01/28 09:54:39;;;;;;;1.63;0.60;;;1.90;99.90;;;;;;4898718;29;20045;-80
2024/01/28 09:57:08;;;;;;;1.47;0.50;;;2.00;99.90;;;;;;4882090;29;20072;-80
2024/01/28 09:59:35;;;;;;;1.77;0.67;;;2.00;99.90;;;;;;4897379;29;20066;-80
2024/01/28 10:02:04;;;;;;;2.20;0.60;;;2.10;99.90;;;;;;4897162;29;20047;-81
2024/01/28 10:04:34;;;;;;;3.73;0.80;;;2.10;99.90;;;;;;4897393;29;20056;-81
2024/01/28 10:07:02;;;;;;;2.30;0.93;;;2.20;99.90;;;;;;4882260;29;20049;-81
2024/01/28 10:09:30;;;;;;;1.87;0.70;;;2.20;99.90;;;;;;4897341;29;20072;-81
2024/01/28 10:12:04;;;;;;;1.50;0.60;;;2.20;99.90;;;;;;4881874;29;20113;-79
2024/01/28 10:14:32;;;;;;;2.30;0.70;;;2.30;99.90;;;;;;4898267;29;20056;-81
2024/01/28 10:16:59;;;;;;;3.40;0.60;;;2.30;99.90;;;;;;4881625;29;20121;-81
2024/01/28 10:19:26;;;;;;;3.03;0.70;;;2.40;99.90;;;;;;4881540;29;20048;-79
2024/01/28 10:21:53;;;;;;;1.75;0.70;;;2.40;99.90;;;;;;4897127;29;20047;-79
2024/01/28 10:24:20;;;;;;;2.90;0.80;;;2.50;99.90;;;;;;4896958;29;20592;-79
2024/01/28 10:26:47;;;;;;;2.50;0.60;;;2.50;99.90;;;;;;4897113;29;20072;-79
2024/01/28 10:29:14;;;;;;;2.80;0.60;;;2.50;99.90;;;;;;4897249;29;20565;-79
2024/01/28 10:31:41;;;;;;;1.47;0.60;;;2.60;99.90;;;;;;4881645;29;20048;-79
2024/01/28 10:34:09;;;;;;;1.17;0.40;;;2.60;99.90;;;;;;4898089;29;20486;-79
2024/01/28 10:36:39;;;;;;;2.07;0.70;;;2.70;99.90;;;;;;4866146;29;20080;-79
2024/01/28 10:39:10;;;;;;;2.13;0.67;;;2.70;99.90;;;;;;4866478;29;20122;-79
2024/01/28 10:41:44;;;;;;;2.27;0.87;;;2.80;99.90;;;;;;4897959;29;20510;-80
2024/01/28 10:44:13;;;;;;;2.87;1.00;;;2.80;99.90;;;;;;4896708;29;20049;-80
2024/01/28 10:46:42;;;;;;;3.37;0.67;;;2.90;99.90;;;;;;4880876;29;20059;-79
2024/01/28 10:49:11;;;;;;;1.70;0.70;;;2.90;99.90;;;;;;4896254;29;20051;-79
2024/01/28 10:51:39;;;;;;;2.73;1.00;;;3.00;99.90;;;;;;4881353;29;20139;-79
2024/01/28 10:54:08;;;;;;;2.10;0.70;;;3.00;99.90;;;;;;4885420;29;20072;-79
2024/01/28 10:56:40;;;;;;;4.73;0.70;;;3.00;99.90;;;;;;4881363;29;20048;-79
2024/01/28 10:59:08;;;;;;;1.48;0.70;;;3.10;99.90;;;;;;4896831;29;20048;-79
2024/01/28 11:01:36;;;;;;;2.90;0.70;;;3.10;99.90;;;;;;4881372;29;20052;-80
2024/01/28 11:04:05;;;;;;;2.20;0.93;;;3.20;99.90;;;;;;4896455;29;20362;-79
2024/01/28 11:06:33;;;;;;;1.60;0.70;;;3.20;99.90;;;;;;4881859;29;20556;-82
2024/01/28 11:09:00;;;;;;;1.47;0.53;;;3.20;99.90;;;;;;4897411;29;20060;-79
2024/01/28 11:11:30;;;;;;;3.15;0.50;;;3.30;99.90;;;;;;4897908;29;20064;-79
2024/01/28 11:13:57;;;;;;;2.93;0.60;;;3.30;99.90;;;;;;4896401;29;20037;-81
2024/01/28 11:16:29;;;;;;;2.28;0.70;;;3.40;99.90;;;;;;4881987;29;20049;-84
2024/01/28 11:19:03;;;;;;;1.87;0.70;;;3.40;99.90;;;;;;4897014;29;20056;-83
2024/01/28 11:21:33;;;;;;;2.80;0.90;;;3.50;99.90;;;;;;4882454;29;20052;-82
2024/01/28 11:24:10;;;;;;;1.70;0.80;;;3.50;99.90;;;;;;4880950;29;20412;-84
2024/01/28 11:26:38;;;;;;;1.80;0.50;;;3.50;99.90;;;;;;4896471;29;20076;-82
2024/01/28 11:29:11;;;;;;;1.70;0.68;;;3.60;99.90;;;;;;4896376;29;20120;-82
2024/01/28 11:31:40;;;;;;;1.60;0.70;;;3.60;99.90;;;;;;4880825;29;20041;-81
2024/01/28 11:34:18;;;;;;;2.67;1.10;;;3.60;99.90;;;;;;4896498;29;20100;-81
2024/01/28 11:36:53;;;;;;;2.55;1.00;;;3.70;99.90;;;;;;4893538;29;20050;-81
2024/01/28 11:39:42;;;;;;;2.37;0.60;;;3.70;99.90;;;;;;4897713;29;20069;-83
2024/01/28 11:42:10;;;;;;;2.27;0.90;;;3.80;99.90;;;;;;4900186;29;20052;-82
2024/01/28 11:44:38;;;;;;;2.25;0.90;;;3.80;99.90;;;;;;4884454;29;20072;-83
2024/01/28 11:47:17;;;;;;;1.65;0.70;;;3.80;99.90;;;;;;4885039;29;20056;-81
2024/01/28 11:49:44;;;;;;;3.20;1.05;;;3.80;99.90;;;;;;4900367;29;20047;-81
2024/01/28 11:52:12;;;;;;;3.13;1.00;;;3.80;99.90;;;;;;4900127;29;20048;-82
2024/01/28 11:54:43;;;;;;;1.48;0.77;;;3.90;99.90;;;;;;4881291;29;20048;-81
2024/01/28 11:57:10;;;;;;;2.88;0.80;;;4.00;99.90;;;;;;4901048;29;20041;-81
2024/01/28 11:59:38;;;;;;;1.80;0.60;;;4.00;99.90;;;;;;4899404;29;20044;-81
2024/01/28 12:02:06;;;;;;;2.33;0.75;;;4.10;99.90;;;;;;4899640;29;20072;-82
2024/01/28 12:04:34;;;;;;;2.40;0.98;;;4.20;99.90;;;;;;4865369;29;20414;-79
2024/01/28 12:07:01;;;;;;;2.13;0.90;;;4.20;99.90;;;;;;4894201;29;20123;-81
2024/01/28 12:09:29;;;;;;;2.60;1.00;;;4.20;99.90;;;;;;4900758;29;20044;-83
2024/01/28 12:11:57;;;;;;;4.97;1.10;;;4.30;99.90;;;;;;4899708;29;20512;-81
2024/01/28 12:14:24;;;;;;;2.28;0.82;;;4.40;99.90;;;;;;4868718;29;20132;-81
2024/01/28 12:16:52;;;;;;;3.08;0.80;;;4.40;99.90;;;;;;4883862;29;20497;-81
2024/01/28 12:19:20;;;;;;;1.83;0.93;;;4.50;99.90;;;;;;4900603;29;20512;-81
2024/01/28 12:21:47;;;;;;;3.15;1.13;;;4.50;99.90;;;;;;4901264;29;20044;-81
2024/01/28 12:24:17;;;;;;;3.10;1.10;;;4.60;99.90;;;;;;4899597;29;20052;-82
2024/01/28 12:26:45;;;;;;;4.25;0.77;;;4.60;99.90;;;;;;4881552;29;20037;-81
2024/01/28 12:29:13;;;;;;;1.55;0.60;;;4.70;99.90;;;;;;4892570;29;20124;-77
2024/01/28 12:31:40;;;;;;;3.30;0.73;;;4.70;99.90;;;;;;4899140;29;20047;-79
2024/01/28 12:34:15;;;;;;;4.30;1.10;;;4.70;99.90;;;;;;4883618;29;20047;-81
2024/01/28 12:36:43;;;;;;;2.15;0.98;;;4.80;99.90;;;;;;4899552;29;20048;-80
2024/01/28 12:39:10;;;;;;;2.03;0.80;;;4.80;99.90;;;;;;4883156;29;20083;-78
2024/01/28 12:41:37;;;;;;;2.78;0.80;;;4.90;99.90;;;;;;4898647;29;20056;-78
2024/01/28 12:44:04;;;;;;;2.03;0.60;;;4.90;99.90;;;;;;4883503;29;20056;-79
2024/01/28 12:46:32;;;;;;;2.65;0.80;;;4.90;99.90;;;;;;4898750;29;20565;-80
2024/01/28 12:49:00;;;;;;;2.78;0.70;;;5.00;99.90;;;;;;4881446;29;20060;-79
2024/01/28 12:51:27;;;;;;;2.42;0.80;;;5.00;99.90;;;;;;4897302;29;20044;-79
2024/01/28 12:53:54;;;;;;;2.65;0.90;;;5.10;99.90;;;;;;4879765;29;20123;-80
2024/01/28 12:56:21;;;;;;;2.45;0.70;;;5.10;99.90;;;;;;4896098;29;20080;-80
2024/01/28 12:58:48;;;;;;;2.38;0.95;;;5.20;99.90;;;;;;4899806;29;20055;-81